Time;durP1;ratioP1;P1;durP2;ratioP2;P2;SDS_P1;SDS_P2;PMS_P1;PMS_P2;Temp;Humidity;BMP_temperature;BMP_pressure;BME280_temperature;BME280_humidity;BME280_pressure;Samples;Min_cycle;Max_cycle;Signal;HPM_P1;HPM_P2
2022/03/15 00:00:01;;;;;;;27.92;24.80;;;11.60;99.90;;;;;;5054447;28;20239;-63
2022/03/15 00:02:28;;;;;;;54.00;38.15;;;11.50;99.90;;;;;;5052950;28;20575;-63
2022/03/15 00:04:55;;;;;;;31.60;21.95;;;11.50;99.90;;;;;;5053209;28;20220;-63
2022/03/15 00:07:23;;;;;;;31.52;23.75;;;11.50;99.90;;;;;;5052439;28;20697;-63
2022/03/15 00:09:50;;;;;;;23.98;21.38;;;11.50;99.90;;;;;;5053541;28;20216;-63
2022/03/15 00:12:17;;;;;;;23.50;21.00;;;11.50;99.90;;;;;;5039314;28;20228;-63
2022/03/15 00:14:44;;;;;;;23.27;19.20;;;11.60;99.90;;;;;;5053635;28;20232;-63
2022/03/15 00:17:13;;;;;;;28.35;23.27;;;11.60;99.90;;;;;;5052568;28;20605;-63
2022/03/15 00:19:40;;;;;;;30.73;26.60;;;11.60;99.90;;;;;;5047463;28;20671;-64
2022/03/15 00:22:07;;;;;;;30.50;23.38;;;11.60;99.90;;;;;;5052755;28;20770;-64
2022/03/15 00:24:34;;;;;;;28.27;23.63;;;11.50;99.90;;;;;;5052105;28;20224;-63
2022/03/15 00:27:03;;;;;;;24.88;22.10;;;11.50;99.90;;;;;;5054431;28;20683;-64
2022/03/15 00:29:29;;;;;;;44.15;33.17;;;11.50;99.90;;;;;;5054118;28;20209;-64
2022/03/15 00:31:56;;;;;;;58.67;41.67;;;11.50;99.90;;;;;;5053988;28;20595;-64
2022/03/15 00:34:24;;;;;;;33.42;25.45;;;11.50;99.90;;;;;;5054325;28;20229;-63
2022/03/15 00:36:51;;;;;;;29.95;24.88;;;11.50;99.90;;;;;;5053990;28;20229;-64
2022/03/15 00:39:18;;;;;;;21.35;19.02;;;11.40;99.90;;;;;;5053704;28;20213;-63
2022/03/15 00:41:45;;;;;;;26.90;21.02;;;11.40;99.90;;;;;;5044933;28;20237;-63
2022/03/15 00:44:12;;;;;;;28.30;23.63;;;11.40;99.90;;;;;;5041924;28;20687;-63
2022/03/15 00:46:39;;;;;;;28.77;23.58;;;11.40;99.90;;;;;;5054019;28;20217;-63
2022/03/15 00:49:06;;;;;;;25.95;20.45;;;11.40;99.90;;;;;;5054002;28;20594;-63
2022/03/15 00:51:34;;;;;;;22.38;19.95;;;11.40;99.90;;;;;;5053147;28;20552;-63
2022/03/15 00:54:01;;;;;;;24.77;21.85;;;11.40;99.90;;;;;;5053317;28;20229;-63
2022/03/15 00:56:28;;;;;;;25.70;20.90;;;11.40;99.90;;;;;;5053580;28;20228;-63
2022/03/15 00:58:55;;;;;;;33.95;27.17;;;11.40;99.90;;;;;;5053947;28;20224;-63
2022/03/15 01:01:22;;;;;;;36.10;27.25;;;11.30;99.90;;;;;;5053478;28;20243;-64
2022/03/15 01:03:48;;;;;;;35.10;27.27;;;11.30;99.90;;;;;;5053938;28;20232;-63
2022/03/15 01:06:15;;;;;;;22.95;20.33;;;11.30;99.90;;;;;;5053737;28;20231;-63
2022/03/15 01:08:43;;;;;;;37.50;30.70;;;11.40;99.90;;;;;;5053667;28;20217;-64
2022/03/15 01:11:10;;;;;;;30.50;23.88;;;11.30;99.90;;;;;;5045700;28;20232;-63
2022/03/15 01:13:37;;;;;;;21.63;18.50;;;11.30;99.90;;;;;;5035114;28;20226;-62
2022/03/15 01:16:04;;;;;;;24.00;19.88;;;11.40;99.90;;;;;;5053756;28;20243;-64
2022/03/15 01:18:31;;;;;;;28.88;24.38;;;11.40;99.90;;;;;;5051910;28;20229;-64
2022/03/15 01:20:58;;;;;;;33.10;26.52;;;11.40;99.90;;;;;;5053485;28;20682;-63
2022/03/15 01:23:25;;;;;;;24.70;18.02;;;11.30;99.90;;;;;;5053273;28;20231;-64
2022/03/15 01:25:54;;;;;;;52.25;39.40;;;11.30;99.90;;;;;;5043642;28;20221;-63
2022/03/15 01:28:21;;;;;;;31.58;23.15;;;11.30;99.90;;;;;;5049987;28;20308;-63
2022/03/15 01:30:48;;;;;;;23.90;19.17;;;11.30;99.90;;;;;;5053176;28;20221;-63
2022/03/15 01:33:14;;;;;;;21.40;16.70;;;11.30;99.90;;;;;;5052945;28;20225;-63
2022/03/15 01:35:41;;;;;;;27.17;20.90;;;11.30;99.90;;;;;;5042715;28;20228;-63
2022/03/15 01:38:09;;;;;;;28.52;21.55;;;11.20;99.90;;;;;;5053269;28;20245;-63
2022/03/15 01:40:36;;;;;;;22.67;18.70;;;11.20;99.90;;;;;;5052307;28;20718;-64
2022/03/15 01:43:05;;;;;;;33.03;24.80;;;11.20;99.90;;;;;;5052974;28;20228;-63
2022/03/15 01:45:34;;;;;;;24.33;19.23;;;11.20;99.90;;;;;;5052783;28;20248;-63
2022/03/15 01:48:01;;;;;;;22.83;16.25;;;11.20;99.90;;;;;;5052878;28;20257;-64
2022/03/15 01:50:28;;;;;;;19.10;15.32;;;11.10;99.90;;;;;;5051641;28;20228;-64
2022/03/15 01:52:55;;;;;;;20.40;15.65;;;11.10;99.90;;;;;;5052949;28;20731;-64
2022/03/15 01:55:22;;;;;;;18.08;15.15;;;11.10;99.90;;;;;;5051857;28;20706;-64
2022/03/15 01:57:50;;;;;;;19.33;16.85;;;11.10;99.90;;;;;;5052842;28;20220;-64
2022/03/15 02:00:19;;;;;;;22.25;18.27;;;11.10;99.90;;;;;;5052690;28;20288;-64
2022/03/15 02:02:46;;;;;;;24.85;21.02;;;11.10;99.90;;;;;;5051743;28;20239;-64
2022/03/15 02:05:13;;;;;;;20.55;16.52;;;11.10;99.90;;;;;;5052349;28;20308;-64
2022/03/15 02:07:41;;;;;;;16.75;14.95;;;11.00;99.90;;;;;;5052363;28;20664;-64
2022/03/15 02:10:08;;;;;;;62.35;35.47;;;11.10;99.90;;;;;;5052102;28;20217;-64
2022/03/15 02:12:38;;;;;;;27.67;22.63;;;11.00;99.90;;;;;;5037908;28;20568;-64
2022/03/15 02:15:07;;;;;;;30.85;21.73;;;11.10;99.90;;;;;;5052579;28;20713;-64
2022/03/15 02:17:36;;;;;;;25.45;18.92;;;11.10;99.90;;;;;;5051801;28;20864;-64
2022/03/15 02:20:07;;;;;;;31.98;24.52;;;11.10;99.90;;;;;;5051963;28;20312;-62
2022/03/15 02:22:34;;;;;;;23.98;20.63;;;11.10;99.90;;;;;;5050103;28;20304;-63
2022/03/15 02:25:01;;;;;;;22.00;17.35;;;11.10;99.90;;;;;;5052100;28;20220;-63
2022/03/15 02:27:28;;;;;;;22.50;17.70;;;11.10;99.90;;;;;;5051183;28;20224;-63
2022/03/15 02:29:54;;;;;;;23.08;17.90;;;11.10;99.90;;;;;;5044521;28;20217;-63
2022/03/15 02:32:21;;;;;;;20.92;16.67;;;11.10;99.90;;;;;;5052063;28;20576;-64
2022/03/15 02:34:48;;;;;;;23.25;20.80;;;11.10;99.90;;;;;;5052096;28;20676;-63
2022/03/15 02:37:16;;;;;;;26.73;17.83;;;11.10;99.90;;;;;;5052174;28;20220;-63
2022/03/15 02:39:43;;;;;;;25.58;18.65;;;11.10;99.90;;;;;;5051890;28;20213;-62
2022/03/15 02:42:10;;;;;;;23.25;18.75;;;11.10;99.90;;;;;;5052618;28;20237;-63
2022/03/15 02:44:37;;;;;;;24.00;18.52;;;11.00;99.90;;;;;;5052295;28;20272;-63
2022/03/15 02:47:04;;;;;;;19.33;16.60;;;11.00;99.90;;;;;;5052256;28;20228;-63
2022/03/15 02:49:31;;;;;;;24.55;18.73;;;11.00;99.90;;;;;;5052136;28;20625;-64
2022/03/15 02:51:58;;;;;;;24.52;21.83;;;11.00;99.90;;;;;;5052081;28;20228;-64
2022/03/15 02:54:26;;;;;;;39.17;27.67;;;11.00;99.90;;;;;;5051515;28;20228;-64
2022/03/15 02:56:53;;;;;;;28.27;21.17;;;11.00;99.90;;;;;;5052360;28;20225;-64
2022/03/15 02:59:20;;;;;;;32.78;25.20;;;11.00;99.90;;;;;;5051918;28;20239;-64
2022/03/15 03:01:49;;;;;;;25.55;19.77;;;11.00;99.90;;;;;;5051691;28;20240;-64
2022/03/15 03:04:17;;;;;;;24.77;19.02;;;11.00;99.90;;;;;;5052502;28;20233;-64
2022/03/15 03:06:44;;;;;;;20.70;17.65;;;11.00;99.90;;;;;;5051642;28;20236;-64
2022/03/15 03:09:13;;;;;;;32.78;25.85;;;11.00;99.90;;;;;;5051596;28;20229;-64
2022/03/15 03:11:41;;;;;;;34.58;27.15;;;11.00;99.90;;;;;;5041447;28;20225;-64
2022/03/15 03:14:12;;;;;;;23.30;18.80;;;11.00;99.90;;;;;;5051946;28;20316;-64
2022/03/15 03:16:39;;;;;;;29.65;22.30;;;11.00;99.90;;;;;;5051567;28;20236;-63
2022/03/15 03:19:08;;;;;;;26.20;19.90;;;11.00;99.90;;;;;;5036038;28;20232;-64
2022/03/15 03:21:36;;;;;;;26.50;20.50;;;11.00;99.90;;;;;;5042586;28;20290;-64
2022/03/15 03:24:05;;;;;;;26.48;20.67;;;11.00;99.90;;;;;;5052058;28;20672;-64
2022/03/15 03:26:34;;;;;;;23.02;18.67;;;10.90;99.90;;;;;;5051622;28;20567;-63
2022/03/15 03:29:02;;;;;;;22.90;17.95;;;10.90;99.90;;;;;;5052145;28;20217;-64
2022/03/15 03:31:30;;;;;;;21.25;17.80;;;10.90;99.90;;;;;;5051774;28;20236;-64
2022/03/15 03:33:57;;;;;;;22.63;18.17;;;10.90;99.90;;;;;;5052856;28;20221;-64
2022/03/15 03:36:24;;;;;;;41.40;28.70;;;10.90;99.90;;;;;;5055790;28;20702;-64
2022/03/15 03:38:51;;;;;;;33.55;24.17;;;10.90;99.90;;;;;;5055372;28;20221;-63
2022/03/15 03:41:18;;;;;;;37.22;24.83;;;10.80;99.90;;;;;;5051355;28;20233;-64
2022/03/15 03:43:45;;;;;;;30.80;23.45;;;10.80;99.90;;;;;;5035134;28;20288;-63
2022/03/15 03:46:14;;;;;;;32.17;27.08;;;10.80;99.90;;;;;;5035772;28;20229;-63
2022/03/15 03:48:41;;;;;;;63.80;44.63;;;10.80;99.90;;;;;;5035476;28;20730;-64
2022/03/15 03:51:08;;;;;;;49.05;35.75;;;10.80;99.90;;;;;;5035237;28;20679;-65
2022/03/15 03:53:35;;;;;;;44.45;34.25;;;10.70;99.90;;;;;;5036531;28;20610;-64
2022/03/15 03:56:02;;;;;;;74.72;48.13;;;10.70;99.90;;;;;;5050442;28;20684;-64
2022/03/15 03:58:29;;;;;;;56.83;39.97;;;10.70;99.90;;;;;;5042666;28;20217;-64
2022/03/15 04:00:55;;;;;;;34.00;27.15;;;10.70;99.90;;;;;;5054523;28;21046;-63
2022/03/15 04:03:24;;;;;;;65.30;41.65;;;10.60;99.90;;;;;;5055426;28;20225;-64
2022/03/15 04:05:52;;;;;;;67.53;48.10;;;10.60;99.90;;;;;;5054354;28;21231;-64
2022/03/15 04:08:19;;;;;;;33.90;25.33;;;10.60;99.90;;;;;;5043970;28;20233;-64
2022/03/15 04:10:46;;;;;;;32.22;24.45;;;10.60;99.90;;;;;;5036694;28;20228;-64
2022/03/15 04:13:18;;;;;;;34.70;26.17;;;10.50;99.90;;;;;;5035395;28;20624;-64
2022/03/15 04:15:44;;;;;;;43.85;30.20;;;10.50;99.90;;;;;;5035069;28;20234;-64
2022/03/15 04:18:11;;;;;;;31.95;25.15;;;10.50;99.90;;;;;;5042999;28;20229;-64
2022/03/15 04:20:40;;;;;;;35.97;28.13;;;10.50;99.90;;;;;;5054463;28;20237;-65
2022/03/15 04:23:08;;;;;;;47.97;34.10;;;10.50;99.90;;;;;;5055039;28;20221;-64
2022/03/15 04:25:35;;;;;;;33.92;28.40;;;10.50;99.90;;;;;;5054566;28;20309;-63
2022/03/15 04:28:02;;;;;;;28.17;20.95;;;10.50;99.90;;;;;;5054710;28;20225;-65
2022/03/15 04:30:29;;;;;;;34.83;24.55;;;10.40;99.90;;;;;;5054872;28;20233;-62
2022/03/15 04:32:56;;;;;;;34.08;24.88;;;10.40;99.90;;;;;;5054452;28;20229;-63
2022/03/15 04:35:23;;;;;;;35.17;28.65;;;10.50;99.90;;;;;;5054645;28;20236;-64
2022/03/15 04:37:52;;;;;;;37.50;32.15;;;10.40;99.90;;;;;;5054282;28;20691;-63
2022/03/15 04:40:19;;;;;;;28.90;23.00;;;10.40;99.90;;;;;;5054493;28;20237;-64
2022/03/15 04:42:48;;;;;;;31.85;24.35;;;10.40;99.90;;;;;;5053994;28;20225;-64
2022/03/15 04:45:15;;;;;;;30.80;25.33;;;10.40;99.90;;;;;;5054134;28;20245;-64
2022/03/15 04:47:42;;;;;;;39.30;32.45;;;10.40;99.90;;;;;;5053577;28;20733;-64
2022/03/15 04:50:11;;;;;;;41.35;30.45;;;10.40;99.90;;;;;;5054339;28;20229;-64
2022/03/15 04:52:38;;;;;;;38.97;27.42;;;10.40;99.90;;;;;;5053842;28;20298;-64
2022/03/15 04:55:07;;;;;;;29.73;23.67;;;10.40;99.90;;;;;;5056908;28;20221;-64
2022/03/15 04:57:35;;;;;;;32.50;24.00;;;10.40;99.90;;;;;;5053939;28;20247;-63
2022/03/15 05:00:02;;;;;;;32.05;25.17;;;10.40;99.90;;;;;;5054121;28;20229;-64
2022/03/15 05:02:29;;;;;;;31.23;25.42;;;10.40;99.90;;;;;;5054279;28;20248;-64
2022/03/15 05:04:56;;;;;;;29.25;20.85;;;10.40;99.90;;;;;;5053292;28;20310;-64
2022/03/15 05:07:22;;;;;;;28.65;22.45;;;10.40;99.90;;;;;;5054038;28;20225;-64
2022/03/15 05:12:36;;;;;;;47.10;31.42;;;10.40;99.90;;;;;;5049131;28;20227;-64
2022/03/15 05:15:02;;;;;;;41.90;30.05;;;10.40;99.90;;;;;;5040481;28;20252;-64
2022/03/15 05:17:30;;;;;;;30.45;22.55;;;10.40;99.90;;;;;;5033868;28;20236;-63
2022/03/15 05:19:57;;;;;;;36.17;28.27;;;10.30;99.90;;;;;;5033576;28;20626;-64
2022/03/15 05:22:24;;;;;;;30.00;21.88;;;10.30;99.90;;;;;;5033738;28;20313;-63
2022/03/15 05:24:51;;;;;;;28.98;22.92;;;10.30;99.90;;;;;;5033874;28;20232;-63
2022/03/15 05:27:18;;;;;;;30.70;21.85;;;10.30;99.90;;;;;;5053719;28;20304;-63
2022/03/15 05:29:46;;;;;;;33.13;24.08;;;10.20;99.90;;;;;;5053445;28;20295;-64
2022/03/15 05:32:13;;;;;;;29.55;24.38;;;10.20;99.90;;;;;;5053526;28;20229;-63
2022/03/15 05:34:40;;;;;;;29.50;23.67;;;10.20;99.90;;;;;;5052915;28;20221;-63
2022/03/15 05:37:08;;;;;;;35.83;26.58;;;10.10;99.90;;;;;;5053703;28;20248;-64
2022/03/15 05:39:35;;;;;;;35.05;27.35;;;10.10;99.90;;;;;;5053430;28;20737;-63
2022/03/15 05:42:02;;;;;;;32.50;25.50;;;10.10;99.90;;;;;;5052750;28;20321;-63
2022/03/15 05:44:29;;;;;;;27.92;22.63;;;10.10;99.90;;;;;;5046645;28;20233;-64
2022/03/15 05:46:58;;;;;;;34.53;23.33;;;10.00;99.90;;;;;;5052982;28;20244;-64
2022/03/15 05:49:25;;;;;;;31.98;25.30;;;10.00;99.90;;;;;;5052551;28;20221;-64
2022/03/15 05:51:52;;;;;;;27.17;22.20;;;10.00;99.90;;;;;;5052763;28;20239;-63
2022/03/15 05:54:19;;;;;;;27.73;21.48;;;10.00;99.90;;;;;;5060615;28;20224;-63
2022/03/15 05:56:45;;;;;;;25.45;22.45;;;9.90;99.90;;;;;;5052156;28;20228;-63
2022/03/15 05:59:13;;;;;;;32.72;21.90;;;9.90;99.90;;;;;;5053139;28;20229;-63
2022/03/15 06:01:40;;;;;;;26.08;20.95;;;9.90;99.90;;;;;;5052965;28;20235;-64
2022/03/15 06:04:10;;;;;;;32.25;24.85;;;9.90;99.90;;;;;;5052649;28;20973;-65
2022/03/15 06:06:38;;;;;;;33.28;23.73;;;9.80;99.90;;;;;;5053019;28;20224;-62
2022/03/15 06:09:05;;;;;;;28.13;23.65;;;9.80;99.90;;;;;;5052540;28;20224;-63
2022/03/15 06:11:32;;;;;;;28.75;24.45;;;9.80;99.90;;;;;;5042824;28;20608;-63
2022/03/15 06:13:59;;;;;;;30.45;24.10;;;9.70;99.90;;;;;;5032507;28;20238;-63
2022/03/15 06:16:26;;;;;;;37.05;26.08;;;9.70;99.90;;;;;;5033099;28;20261;-63
2022/03/15 06:18:53;;;;;;;30.10;24.10;;;9.70;99.90;;;;;;5039159;28;20221;-63
2022/03/15 06:21:21;;;;;;;33.20;24.60;;;9.70;99.90;;;;;;5044956;28;20224;-63
2022/03/15 06:23:48;;;;;;;33.10;25.23;;;9.70;99.90;;;;;;5052192;28;20221;-64
2022/03/15 06:26:15;;;;;;;33.55;26.80;;;9.60;99.90;;;;;;5052722;28;20683;-63
2022/03/15 06:28:42;;;;;;;38.85;27.38;;;9.60;99.90;;;;;;5052726;28;20224;-63
2022/03/15 06:31:09;;;;;;;34.20;26.80;;;9.60;99.90;;;;;;5051332;28;20283;-63
2022/03/15 06:33:36;;;;;;;38.03;27.48;;;9.70;99.90;;;;;;5052733;28;20227;-63
2022/03/15 06:36:06;;;;;;;29.05;24.02;;;9.70;99.90;;;;;;5052322;28;20316;-63
2022/03/15 06:38:34;;;;;;;34.88;26.20;;;9.70;99.90;;;;;;5052389;28;20544;-64
2022/03/15 06:41:01;;;;;;;40.38;26.50;;;9.70;99.90;;;;;;5051775;28;20236;-63
2022/03/15 06:43:28;;;;;;;38.70;27.30;;;9.70;99.90;;;;;;5052662;28;20247;-62
2022/03/15 06:45:55;;;;;;;38.55;28.35;;;9.80;99.90;;;;;;5052104;28;20546;-63
2022/03/15 06:48:21;;;;;;;34.38;26.55;;;9.80;99.90;;;;;;5052802;28;20220;-62
2022/03/15 06:50:48;;;;;;;35.80;27.75;;;9.80;99.90;;;;;;5037836;28;20718;-63
2022/03/15 06:53:15;;;;;;;40.13;29.77;;;9.80;99.90;;;;;;5032710;28;20213;-64
2022/03/15 06:55:43;;;;;;;35.97;27.33;;;9.80;99.90;;;;;;5038304;28;20556;-63
2022/03/15 06:58:10;;;;;;;32.83;24.25;;;9.80;99.90;;;;;;5036695;28;20227;-63
2022/03/15 07:00:37;;;;;;;33.83;25.33;;;9.90;99.90;;;;;;5052425;28;20236;-63
2022/03/15 07:03:04;;;;;;;32.63;24.15;;;9.90;99.90;;;;;;5052212;28;20226;-63
2022/03/15 07:05:31;;;;;;;29.40;22.80;;;10.00;99.90;;;;;;5052462;28;20232;-63
2022/03/15 07:07:58;;;;;;;30.65;22.25;;;10.10;99.90;;;;;;5051804;28;20232;-63
2022/03/15 07:10:25;;;;;;;27.38;21.45;;;10.10;99.90;;;;;;5054665;28;20567;-63
2022/03/15 07:12:53;;;;;;;27.75;21.85;;;10.20;99.90;;;;;;5046995;28;20216;-63
2022/03/15 07:15:20;;;;;;;30.38;22.58;;;10.20;99.90;;;;;;5056439;28;20312;-63
2022/03/15 07:17:51;;;;;;;37.45;26.05;;;10.20;99.90;;;;;;5055857;28;20228;-63
2022/03/15 07:20:18;;;;;;;37.42;25.30;;;10.30;99.90;;;;;;5049159;28;20280;-63
2022/03/15 07:22:45;;;;;;;34.63;25.63;;;10.40;99.90;;;;;;5036189;28;20233;-64
2022/03/15 07:25:12;;;;;;;37.60;30.55;;;10.40;99.90;;;;;;5038940;28;20232;-63
2022/03/15 07:27:39;;;;;;;37.35;29.58;;;10.50;99.90;;;;;;5055832;28;20240;-64
2022/03/15 07:30:09;;;;;;;33.63;25.90;;;10.50;99.90;;;;;;5055517;28;20232;-63
2022/03/15 07:32:35;;;;;;;45.22;31.83;;;10.60;99.90;;;;;;5055983;28;20217;-63
2022/03/15 07:35:03;;;;;;;42.60;32.33;;;10.60;99.90;;;;;;5054907;28;20217;-63
2022/03/15 07:37:29;;;;;;;31.77;24.52;;;10.60;99.90;;;;;;5055852;28;20217;-64
2022/03/15 07:39:56;;;;;;;35.75;25.10;;;10.70;99.90;;;;;;5055395;28;20570;-64
2022/03/15 07:42:24;;;;;;;37.53;25.10;;;10.70;99.90;;;;;;5055522;28;20225;-64
2022/03/15 07:44:51;;;;;;;34.80;24.90;;;10.80;99.90;;;;;;5044660;28;20226;-63
2022/03/15 07:47:19;;;;;;;51.10;33.72;;;10.80;99.90;;;;;;5035513;28;20237;-64
2022/03/15 07:49:47;;;;;;;29.90;25.40;;;10.90;99.90;;;;;;5035472;28;20591;-64
2022/03/15 07:52:14;;;;;;;33.47;25.42;;;10.90;99.90;;;;;;5047763;28;20229;-63
2022/03/15 07:54:42;;;;;;;38.22;28.70;;;11.00;99.90;;;;;;5055499;28;20235;-64
2022/03/15 07:57:10;;;;;;;46.25;35.78;;;11.00;99.90;;;;;;5054647;28;20229;-63
2022/03/15 07:59:37;;;;;;;38.72;29.98;;;11.00;99.90;;;;;;5055476;28;20679;-64
2022/03/15 08:02:05;;;;;;;44.20;28.70;;;11.10;99.90;;;;;;5054540;28;20294;-64
2022/03/15 08:04:33;;;;;;;38.55;27.88;;;11.20;99.90;;;;;;5055112;28;20225;-64
2022/03/15 08:07:00;;;;;;;30.42;24.92;;;11.20;99.90;;;;;;5054890;28;20248;-64
2022/03/15 08:09:26;;;;;;;31.92;22.92;;;11.30;99.90;;;;;;5054943;28;20217;-63
2022/03/15 08:11:53;;;;;;;30.63;24.27;;;11.30;99.90;;;;;;5041627;28;20222;-64
2022/03/15 08:14:20;;;;;;;31.90;25.63;;;11.40;99.90;;;;;;5035396;28;20217;-63
2022/03/15 08:16:47;;;;;;;27.98;23.45;;;11.50;99.90;;;;;;5034966;28;20245;-63
2022/03/15 08:19:14;;;;;;;35.67;25.15;;;11.50;99.90;;;;;;5051230;28;20240;-63
2022/03/15 08:21:42;;;;;;;34.97;26.27;;;11.60;99.90;;;;;;5054911;28;20228;-63
2022/03/15 08:24:10;;;;;;;39.33;28.85;;;11.60;99.90;;;;;;5054264;28;20228;-64
2022/03/15 08:26:42;;;;;;;37.25;30.10;;;11.70;99.90;;;;;;5054899;28;20308;-64
2022/03/15 08:29:09;;;;;;;38.88;30.05;;;11.70;99.90;;;;;;5054422;28;20565;-64
2022/03/15 08:31:35;;;;;;;44.55;31.55;;;11.70;99.90;;;;;;5054848;28;20228;-64
2022/03/15 08:34:02;;;;;;;35.13;28.83;;;11.80;99.90;;;;;;5054290;28;20235;-64
2022/03/15 08:36:29;;;;;;;39.55;27.55;;;11.80;99.90;;;;;;5054444;28;20235;-63
2022/03/15 08:38:57;;;;;;;37.30;30.60;;;11.80;99.90;;;;;;5034152;28;20705;-64
2022/03/15 08:41:24;;;;;;;32.83;25.48;;;11.90;99.90;;;;;;5034779;28;20229;-62
2022/03/15 08:43:52;;;;;;;36.42;30.20;;;11.90;99.90;;;;;;5051105;28;20247;-63
2022/03/15 08:46:18;;;;;;;32.97;26.50;;;12.00;99.90;;;;;;5054101;28;20673;-64
2022/03/15 08:48:45;;;;;;;37.60;29.33;;;12.00;99.90;;;;;;5054626;28;20221;-63
2022/03/15 08:51:12;;;;;;;32.35;26.30;;;12.00;99.90;;;;;;5053706;28;20229;-64
2022/03/15 08:53:39;;;;;;;34.53;26.13;;;12.10;99.90;;;;;;5054320;28;20225;-63
2022/03/15 08:56:07;;;;;;;38.15;31.33;;;12.10;99.90;;;;;;5053916;28;20229;-64
2022/03/15 08:58:34;;;;;;;43.40;33.50;;;12.20;99.90;;;;;;5054335;28;20571;-63
2022/03/15 09:01:01;;;;;;;41.40;30.52;;;12.20;99.90;;;;;;5053683;28;20239;-64
2022/03/15 09:03:28;;;;;;;47.95;33.45;;;12.30;99.90;;;;;;5054391;28;20286;-63
2022/03/15 09:05:54;;;;;;;43.08;32.72;;;12.30;99.90;;;;;;5054137;28;20248;-64
2022/03/15 09:08:21;;;;;;;37.67;30.05;;;12.40;99.90;;;;;;5053836;28;20222;-63
2022/03/15 09:10:48;;;;;;;34.13;27.65;;;12.40;99.90;;;;;;5049892;28;20225;-63
2022/03/15 09:13:17;;;;;;;39.35;29.20;;;12.50;99.90;;;;;;5033673;28;20321;-64
2022/03/15 09:15:44;;;;;;;35.85;27.98;;;12.50;99.90;;;;;;5034022;28;20217;-64
2022/03/15 09:18:11;;;;;;;32.90;25.02;;;12.60;99.90;;;;;;5039540;28;20217;-63
2022/03/15 09:20:38;;;;;;;38.30;29.17;;;12.60;99.90;;;;;;5033796;28;20684;-63
2022/03/15 09:23:06;;;;;;;38.15;26.42;;;12.70;99.90;;;;;;5033496;28;20225;-63
2022/03/15 09:25:34;;;;;;;37.58;24.30;;;12.70;99.90;;;;;;5040279;28;20225;-64
2022/03/15 09:28:01;;;;;;;32.35;24.42;;;12.80;99.90;;;;;;5053392;28;20221;-63
2022/03/15 09:30:30;;;;;;;29.65;23.77;;;12.90;99.90;;;;;;5053636;28;20221;-64
2022/03/15 09:32:58;;;;;;;27.30;21.05;;;12.90;99.90;;;;;;5053327;28;20225;-64
2022/03/15 09:35:25;;;;;;;28.40;20.38;;;13.00;99.90;;;;;;5053236;28;20602;-62
2022/03/15 09:37:52;;;;;;;32.15;22.55;;;13.10;99.90;;;;;;5053519;28;20232;-64
2022/03/15 09:40:23;;;;;;;35.15;25.65;;;13.20;99.90;;;;;;5053125;28;20582;-63
2022/03/15 09:42:52;;;;;;;25.38;19.38;;;13.20;99.90;;;;;;5053100;28;20224;-63
2022/03/15 09:45:22;;;;;;;31.95;25.65;;;13.30;99.90;;;;;;5053138;28;20282;-64
2022/03/15 09:47:55;;;;;;;33.15;23.83;;;13.30;99.90;;;;;;5053259;28;20225;-63
2022/03/15 09:50:24;;;;;;;35.42;25.92;;;13.40;99.90;;;;;;5052618;28;20225;-63
2022/03/15 09:52:51;;;;;;;26.15;22.30;;;13.40;99.90;;;;;;5053082;28;20247;-63
2022/03/15 09:55:23;;;;;;;32.22;23.23;;;13.50;99.90;;;;;;5052796;28;20228;-62
2022/03/15 09:57:50;;;;;;;32.40;20.63;;;13.50;99.90;;;;;;5052995;28;20232;-63
2022/03/15 10:00:17;;;;;;;28.27;21.63;;;13.60;99.90;;;;;;5052504;28;20290;-63
2022/03/15 10:02:45;;;;;;;22.50;18.23;;;13.70;99.90;;;;;;5053200;28;20236;-63
2022/03/15 10:05:14;;;;;;;26.90;18.13;;;13.70;99.90;;;;;;5052532;28;20232;-63
2022/03/15 10:07:42;;;;;;;23.08;17.63;;;13.80;99.90;;;;;;5053091;28;20217;-63
2022/03/15 10:10:11;;;;;;;18.38;16.02;;;13.80;99.90;;;;;;5052412;28;20227;-63
2022/03/15 10:12:38;;;;;;;25.25;18.58;;;13.90;99.90;;;;;;5033974;28;20221;-63
2022/03/15 10:15:13;;;;;;;25.30;19.05;;;13.90;99.90;;;;;;5032587;28;20217;-63
2022/03/15 10:17:47;;;;;;;20.75;17.33;;;13.90;99.90;;;;;;5036363;28;20229;-63
2022/03/15 10:20:18;;;;;;;20.02;15.80;;;13.90;99.90;;;;;;5032546;28;20229;-63
2022/03/15 10:22:53;;;;;;;15.50;13.68;;;14.00;99.90;;;;;;5032837;28;20684;-63
2022/03/15 10:25:22;;;;;;;15.55;12.80;;;14.00;99.90;;;;;;5036825;28;20228;-64
2022/03/15 10:27:54;;;;;;;20.48;15.82;;;14.00;99.90;;;;;;5052893;28;20221;-64
2022/03/15 10:30:21;;;;;;;17.30;14.95;;;14.10;99.90;;;;;;5052153;28;20233;-64
2022/03/15 10:32:48;;;;;;;19.17;14.60;;;14.10;99.90;;;;;;5052962;28;20235;-63
2022/03/15 10:35:21;;;;;;;19.80;16.20;;;14.10;99.90;;;;;;5052362;28;20224;-63
2022/03/15 10:37:48;;;;;;;22.80;16.67;;;14.20;99.90;;;;;;5052730;28;20477;-63
2022/03/15 10:40:15;;;;;;;19.80;15.33;;;14.30;99.90;;;;;;5052115;28;20463;-63
2022/03/15 10:42:43;;;;;;;27.40;17.07;;;14.40;99.90;;;;;;5052484;28;20467;-62
2022/03/15 10:45:18;;;;;;;26.17;17.27;;;14.40;99.90;;;;;;5054999;28;20474;-64
2022/03/15 10:47:49;;;;;;;16.55;13.48;;;14.50;99.90;;;;;;5056896;28;20459;-63
2022/03/15 10:50:18;;;;;;;17.23;13.03;;;14.60;99.90;;;;;;5055939;28;20233;-63
2022/03/15 10:52:46;;;;;;;21.47;16.70;;;14.60;99.90;;;;;;5056708;28;20470;-63
2022/03/15 10:55:18;;;;;;;20.67;15.00;;;14.60;99.90;;;;;;5056002;28;20537;-63
2022/03/15 10:57:48;;;;;;;19.20;14.60;;;14.60;99.60;;;;;;5056441;28;20466;-63
2022/03/15 11:00:16;;;;;;;18.07;14.23;;;14.70;99.20;;;;;;5056129;28;20482;-64
2022/03/15 11:02:44;;;;;;;23.50;15.43;;;14.70;99.00;;;;;;5056399;28;20463;-64
2022/03/15 11:05:11;;;;;;;17.53;14.70;;;14.70;98.70;;;;;;5055934;28;20479;-64
2022/03/15 11:07:41;;;;;;;19.40;16.60;;;14.70;98.60;;;;;;5056371;28;21000;-64
2022/03/15 11:10:12;;;;;;;15.30;13.70;;;14.70;98.60;;;;;;5055972;28;20463;-64
2022/03/15 11:12:53;;;;;;;14.60;12.33;;;14.70;98.50;;;;;;5056322;28;20467;-63
2022/03/15 11:15:27;;;;;;;18.73;12.90;;;14.70;98.40;;;;;;5055855;28;20467;-64
2022/03/15 11:17:58;;;;;;;15.80;11.67;;;14.70;98.40;;;;;;5056228;28;20229;-62
2022/03/15 11:20:26;;;;;;;14.30;11.60;;;14.70;98.20;;;;;;5055661;28;20471;-64
2022/03/15 11:22:58;;;;;;;21.77;13.73;;;14.70;98.00;;;;;;5056086;28;20477;-63
2022/03/15 11:25:28;;;;;;;14.33;11.70;;;14.70;98.00;;;;;;5055383;28;20471;-63
2022/03/15 11:27:55;;;;;;;17.50;13.47;;;14.70;97.90;;;;;;5056145;28;20467;-63
2022/03/15 11:30:22;;;;;;;17.37;13.43;;;14.70;97.80;;;;;;5055404;28;20483;-63
2022/03/15 11:32:51;;;;;;;18.83;13.67;;;14.80;97.70;;;;;;5055898;28;20567;-64
2022/03/15 11:35:22;;;;;;;24.47;18.73;;;14.80;97.50;;;;;;5055697;28;20828;-62
2022/03/15 11:37:50;;;;;;;19.97;16.00;;;14.80;97.60;;;;;;5055800;28;20528;-63
2022/03/15 11:40:19;;;;;;;18.20;15.50;;;14.80;97.60;;;;;;5055212;28;20962;-63
2022/03/15 11:42:49;;;;;;;19.57;14.97;;;14.80;97.70;;;;;;5055958;28;20777;-62
2022/03/15 11:45:23;;;;;;;16.90;14.90;;;14.90;97.80;;;;;;5055214;28;20490;-63
2022/03/15 11:47:59;;;;;;;15.10;11.67;;;14.90;97.80;;;;;;5055830;28;20528;-63
2022/03/15 11:50:32;;;;;;;14.00;12.10;;;14.90;97.60;;;;;;5054927;28;20478;-63
2022/03/15 11:53:06;;;;;;;13.93;12.53;;;14.90;97.60;;;;;;5055595;28;20544;-63
2022/03/15 11:55:41;;;;;;;16.43;12.27;;;15.00;97.60;;;;;;5054154;28;20539;-63
2022/03/15 11:58:10;;;;;;;14.07;12.53;;;15.00;97.60;;;;;;5055331;28;20836;-63
2022/03/15 12:00:42;;;;;;;12.87;11.07;;;15.00;97.60;;;;;;5054920;28;20494;-63
2022/03/15 12:03:10;;;;;;;11.07;9.97;;;15.00;97.40;;;;;;5055322;28;20497;-64
2022/03/15 12:05:45;;;;;;;19.20;14.17;;;15.00;97.10;;;;;;5054168;28;21220;-63
2022/03/15 12:08:16;;;;;;;13.87;11.37;;;15.00;97.00;;;;;;5054327;28;20471;-63
2022/03/15 12:10:47;;;;;;;17.40;14.83;;;15.10;97.00;;;;;;5050701;28;21297;-64
2022/03/15 12:13:15;;;;;;;19.63;13.93;;;15.10;96.90;;;;;;5034658;28;20522;-63
2022/03/15 12:15:45;;;;;;;14.93;13.37;;;15.10;96.90;;;;;;5034020;28;20520;-64
2022/03/15 12:18:24;;;;;;;17.13;13.97;;;15.10;96.80;;;;;;5034282;28;20467;-63
2022/03/15 12:21:02;;;;;;;14.40;12.63;;;15.10;96.30;;;;;;5034899;28;20452;-63
2022/03/15 12:23:30;;;;;;;13.10;11.70;;;15.20;96.10;;;;;;5034626;28;20521;-63
2022/03/15 12:25:58;;;;;;;24.73;17.07;;;15.20;96.10;;;;;;5044383;28;20483;-62
2022/03/15 12:28:28;;;;;;;19.57;15.43;;;15.10;96.20;;;;;;5053369;28;20478;-62
2022/03/15 12:30:55;;;;;;;19.57;16.13;;;15.10;96.40;;;;;;5054514;28;20472;-62
2022/03/15 12:33:26;;;;;;;17.13;14.37;;;15.10;96.40;;;;;;5053686;28;20471;-62